Time;durP1;ratioP1;P1;durP2;ratioP2;P2;SDS_P1;SDS_P2;PMS_P1;PMS_P2;Temp;Humidity;BMP_temperature;BMP_pressure;BME280_temperature;BME280_humidity;BME280_pressure;Samples;Min_cycle;Max_cycle;Signal;HPM_P1;HPM_P2
2022/08/21 00:02:15;;;;;;;4.40;3.87;;;18.30;1.00;;;;;;5010890;28;20423;-66
2022/08/21 00:04:41;;;;;;;4.70;4.30;;;18.30;1.00;;;;;;5010757;28;20180;-66
2022/08/21 00:07:06;;;;;;;6.20;4.13;;;18.30;1.00;;;;;;5010920;28;20422;-66
2022/08/21 00:09:32;;;;;;;7.33;4.60;;;18.30;1.00;;;;;;5010800;28;20259;-65
2022/08/21 00:11:58;;;;;;;8.67;4.80;;;18.20;1.00;;;;;;5010710;28;20176;-66
2022/08/21 00:14:23;;;;;;;6.03;4.87;;;18.20;1.00;;;;;;5010879;28;20196;-66
2022/08/21 00:16:49;;;;;;;6.33;5.73;;;18.20;1.00;;;;;;5010687;28;20164;-66
2022/08/21 00:19:15;;;;;;;11.10;5.63;;;18.20;1.00;;;;;;5010513;28;20529;-66
2022/08/21 00:21:41;;;;;;;10.00;5.93;;;18.20;1.00;;;;;;5010801;28;20248;-66
2022/08/21 00:24:06;;;;;;;7.60;6.53;;;18.20;1.00;;;;;;5010689;28;20219;-66
2022/08/21 00:26:32;;;;;;;8.40;7.20;;;18.10;1.00;;;;;;5010819;28;20799;-65
2022/08/21 00:28:58;;;;;;;9.13;6.60;;;18.10;1.00;;;;;;5010448;28;20176;-66
2022/08/21 00:31:24;;;;;;;10.53;7.63;;;18.00;1.00;;;;;;5011170;28;20180;-66
2022/08/21 00:33:50;;;;;;;9.43;8.00;;;18.10;1.00;;;;;;5010572;28;20184;-66
2022/08/21 00:36:16;;;;;;;8.07;7.30;;;18.10;1.00;;;;;;5010757;28;20207;-64
2022/08/21 00:38:41;;;;;;;9.20;8.30;;;18.10;1.00;;;;;;5012911;28;20195;-65
2022/08/21 00:41:09;;;;;;;9.33;8.43;;;18.10;1.00;;;;;;5014386;28;20196;-65
2022/08/21 00:43:36;;;;;;;10.47;8.63;;;18.00;1.00;;;;;;5014348;28;20164;-66
2022/08/21 00:46:04;;;;;;;11.90;8.30;;;18.10;1.00;;;;;;5014286;28;20415;-66
2022/08/21 00:48:31;;;;;;;10.50;8.90;;;18.10;1.00;;;;;;5013966;28;20415;-66
2022/08/21 00:51:10;;;;;;;9.30;8.30;;;18.00;1.00;;;;;;5014311;28;20493;-66
2022/08/21 00:53:40;;;;;;;10.23;9.23;;;18.00;1.00;;;;;;5014273;28;20408;-66
2022/08/21 00:56:09;;;;;;;14.90;11.50;;;18.00;1.00;;;;;;5014032;28;21089;-66
2022/08/21 00:58:37;;;;;;;12.40;10.30;;;18.00;1.00;;;;;;5012551;28;20431;-65
2022/08/21 01:01:04;;;;;;;11.27;10.07;;;17.90;1.00;;;;;;5013846;28;20577;-66
2022/08/21 01:03:31;;;;;;;12.40;10.50;;;17.90;1.00;;;;;;5014175;28;20487;-66
2022/08/21 01:05:56;;;;;;;14.10;10.50;;;17.80;1.00;;;;;;5013870;28;20430;-66
2022/08/21 01:08:23;;;;;;;11.30;10.10;;;17.90;1.00;;;;;;5014077;28;20758;-65
2022/08/21 01:10:49;;;;;;;12.77;10.50;;;17.80;1.00;;;;;;5013935;28;20196;-65
2022/08/21 01:13:18;;;;;;;12.67;10.70;;;17.80;1.00;;;;;;5013712;28;20399;-66
2022/08/21 01:15:48;;;;;;;13.30;10.40;;;17.80;1.00;;;;;;5013662;28;20848;-66
2022/08/21 01:18:15;;;;;;;12.73;9.07;;;17.80;1.00;;;;;;5013645;28;20819;-66
2022/08/21 01:20:45;;;;;;;11.00;9.53;;;17.80;1.00;;;;;;5013655;28;21050;-64
2022/08/21 01:23:12;;;;;;;11.20;9.37;;;17.80;1.00;;;;;;4996209;28;20497;-65
2022/08/21 01:25:38;;;;;;;12.40;9.10;;;17.80;1.00;;;;;;5013619;28;20797;-64
2022/08/21 01:28:13;;;;;;;10.10;9.10;;;17.70;1.00;;;;;;5013179;28;20409;-65
2022/08/21 01:30:41;;;;;;;10.50;9.30;;;17.70;1.00;;;;;;5013680;28;20644;-65
2022/08/21 01:33:07;;;;;;;10.97;9.87;;;17.60;1.00;;;;;;5013519;28;20494;-65
2022/08/21 01:35:33;;;;;;;14.07;11.73;;;17.60;1.00;;;;;;5013408;28;20522;-65
2022/08/21 01:37:59;;;;;;;11.83;10.60;;;17.60;1.00;;;;;;5013322;28;20243;-65
2022/08/21 01:40:25;;;;;;;11.77;10.53;;;17.50;1.00;;;;;;5013081;28;20203;-65
2022/08/21 01:42:50;;;;;;;10.40;9.27;;;17.50;1.00;;;;;;5013347;28;20203;-64
2022/08/21 01:45:17;;;;;;;9.33;8.43;;;17.50;1.00;;;;;;5013163;28;20188;-65
2022/08/21 01:47:44;;;;;;;11.60;10.40;;;17.50;1.00;;;;;;5013109;28;20164;-65
2022/08/21 01:50:13;;;;;;;10.13;9.13;;;17.50;1.00;;;;;;5012339;28;20435;-66
2022/08/21 01:52:39;;;;;;;9.13;8.27;;;17.50;1.00;;;;;;5013074;28;20407;-66
2022/08/21 01:55:06;;;;;;;10.20;9.20;;;17.50;1.00;;;;;;5012910;28;20438;-66
2022/08/21 01:57:32;;;;;;;13.10;10.37;;;17.50;1.00;;;;;;5012819;28;20411;-65
2022/08/21 01:59:59;;;;;;;10.53;9.43;;;17.50;1.00;;;;;;5012646;28;20471;-65
2022/08/21 02:02:24;;;;;;;10.33;8.90;;;17.50;1.00;;;;;;5012892;28;20507;-65
2022/08/21 02:04:50;;;;;;;9.57;8.67;;;17.50;1.00;;;;;;5012888;28;20506;-64
2022/08/21 02:07:16;;;;;;;9.93;8.93;;;17.50;1.00;;;;;;5012638;28;20688;-66
2022/08/21 02:09:42;;;;;;;9.70;8.80;;;17.50;1.00;;;;;;5012667;28;20180;-65
2022/08/21 02:12:08;;;;;;;9.60;8.67;;;17.40;1.00;;;;;;5012768;28;20165;-64
2022/08/21 02:14:34;;;;;;;10.93;9.57;;;17.30;1.00;;;;;;5012610;28;20188;-66
2022/08/21 02:17:01;;;;;;;13.33;8.80;;;17.40;1.00;;;;;;4994962;28;20438;-64
2022/08/21 02:19:26;;;;;;;12.23;11.00;;;17.50;1.00;;;;;;5012468;28;20547;-65
2022/08/21 02:21:52;;;;;;;18.37;9.33;;;17.50;1.00;;;;;;5011302;28;20415;-65
2022/08/21 02:24:18;;;;;;;15.97;8.60;;;17.60;1.00;;;;;;5012873;28;20168;-65
2022/08/21 02:26:43;;;;;;;9.03;8.13;;;17.60;1.00;;;;;;5012562;28;20529;-64
2022/08/21 02:29:09;;;;;;;8.93;8.03;;;17.60;1.00;;;;;;5012144;28;20180;-60
2022/08/21 02:31:35;;;;;;;15.50;7.77;;;17.40;1.00;;;;;;5012506;28;20198;-61
2022/08/21 02:34:01;;;;;;;8.10;7.40;;;17.50;1.00;;;;;;5012328;28;20255;-60
2022/08/21 02:36:26;;;;;;;8.47;7.43;;;17.40;1.00;;;;;;5012463;28;20176;-64
2022/08/21 02:38:52;;;;;;;8.70;7.80;;;17.40;1.00;;;;;;5013827;28;20708;-65
2022/08/21 02:41:21;;;;;;;9.50;8.50;;;17.30;1.00;;;;;;5014319;28;20631;-65
2022/08/21 02:43:46;;;;;;;10.07;8.80;;;17.40;1.00;;;;;;5012329;28;20190;-65
2022/08/21 02:46:16;;;;;;;9.63;8.67;;;17.40;1.00;;;;;;5012219;28;21014;-66
2022/08/21 02:48:42;;;;;;;10.33;9.23;;;17.30;1.00;;;;;;5011920;28;20164;-65
2022/08/21 02:51:17;;;;;;;11.30;9.33;;;17.30;1.00;;;;;;5012008;28;20438;-65
2022/08/21 02:53:43;;;;;;;10.00;9.10;;;17.20;1.00;;;;;;5012096;28;20446;-66
2022/08/21 02:56:13;;;;;;;13.17;9.63;;;17.20;1.00;;;;;;5011906;28;20467;-65
2022/08/21 02:58:42;;;;;;;9.90;8.73;;;17.20;1.00;;;;;;5011558;28;20411;-64
2022/08/21 03:01:09;;;;;;;10.60;9.60;;;17.20;1.00;;;;;;5011792;28;20447;-65
2022/08/21 03:03:37;;;;;;;14.60;10.33;;;17.20;1.00;;;;;;5011764;28;20506;-65
2022/08/21 03:06:05;;;;;;;13.50;9.57;;;17.20;1.00;;;;;;5011553;28;20450;-64
2022/08/21 03:08:31;;;;;;;14.47;9.87;;;17.10;1.00;;;;;;5011468;28;20410;-64
2022/08/21 03:10:59;;;;;;;11.90;10.70;;;17.10;1.00;;;;;;5011839;28;20411;-66
2022/08/21 03:13:25;;;;;;;10.07;9.07;;;17.00;1.00;;;;;;5011895;28;20407;-66
2022/08/21 03:15:51;;;;;;;12.40;11.20;;;17.00;1.00;;;;;;5011639;28;20442;-65
2022/08/21 03:18:17;;;;;;;12.30;10.90;;;17.10;1.00;;;;;;5011394;28;20171;-65
2022/08/21 03:20:44;;;;;;;11.17;10.07;;;17.10;1.00;;;;;;5011728;28;20207;-65
2022/08/21 03:23:11;;;;;;;17.90;11.67;;;17.10;1.00;;;;;;5011724;28;20437;-65
2022/08/21 03:25:38;;;;;;;14.20;10.50;;;17.20;1.00;;;;;;5011502;28;20423;-65
2022/08/21 03:28:06;;;;;;;16.60;11.30;;;17.10;1.00;;;;;;5011342;28;20422;-65
2022/08/21 03:30:32;;;;;;;11.90;10.70;;;17.20;1.00;;;;;;5011399;28;20903;-64
2022/08/21 03:32:59;;;;;;;13.93;9.90;;;17.20;1.00;;;;;;5011378;28;20449;-65
2022/08/21 03:35:26;;;;;;;14.87;11.27;;;17.10;1.00;;;;;;5011274;28;20199;-64
2022/08/21 03:37:53;;;;;;;18.63;12.77;;;17.10;1.00;;;;;;5011261;28;20494;-64
2022/08/21 03:40:20;;;;;;;24.17;13.27;;;17.20;1.00;;;;;;5011051;28;20447;-63
2022/08/21 03:42:49;;;;;;;17.37;12.37;;;17.20;1.00;;;;;;5011337;28;20410;-64
2022/08/21 03:45:17;;;;;;;14.37;12.40;;;17.10;1.00;;;;;;5011090;28;20423;-65
2022/08/21 03:47:55;;;;;;;17.47;12.67;;;17.10;1.00;;;;;;5011056;28;20916;-64
2022/08/21 03:50:22;;;;;;;18.33;13.13;;;17.00;1.00;;;;;;5010960;28;20891;-65
2022/08/21 03:52:48;;;;;;;17.37;12.07;;;17.00;1.00;;;;;;5011239;28;20502;-65
2022/08/21 03:55:14;;;;;;;20.33;12.43;;;17.00;1.00;;;;;;5011096;28;20455;-64
2022/08/21 03:57:40;;;;;;;15.23;13.57;;;17.00;1.00;;;;;;5010978;28;20403;-64
2022/08/21 04:00:08;;;;;;;25.10;13.30;;;17.00;1.00;;;;;;5010809;28;20195;-65
2022/08/21 04:02:34;;;;;;;15.20;12.30;;;17.00;1.00;;;;;;5011313;28;20303;-64
2022/08/21 04:05:00;;;;;;;18.33;10.87;;;17.00;1.00;;;;;;5010954;28;20431;-65
2022/08/21 04:07:25;;;;;;;43.00;13.43;;;16.90;1.00;;;;;;5010975;28;20160;-64
2022/08/21 04:09:51;;;;;;;23.10;11.70;;;17.00;1.00;;;;;;5010888;28;20736;-65
2022/08/21 04:12:17;;;;;;;22.53;11.17;;;16.90;1.00;;;;;;5011379;28;20172;-65
2022/08/21 04:14:42;;;;;;;40.47;12.30;;;16.90;1.00;;;;;;5014833;28;20196;-66
2022/08/21 04:17:08;;;;;;;18.90;10.17;;;16.80;1.00;;;;;;5014723;28;20176;-65
2022/08/21 04:19:34;;;;;;;22.87;9.40;;;16.70;1.00;;;;;;5014773;28;20180;-63
2022/08/21 04:22:00;;;;;;;23.23;10.30;;;16.70;1.00;;;;;;5014887;28;20277;-65
2022/08/21 04:24:25;;;;;;;26.83;10.20;;;16.70;1.00;;;;;;5014598;28;20180;-65
2022/08/21 04:26:51;;;;;;;18.33;9.10;;;16.60;1.00;;;;;;5014694;28;20180;-65
2022/08/21 04:29:17;;;;;;;17.03;9.10;;;16.70;1.00;;;;;;5014400;28;20247;-65
2022/08/21 04:31:43;;;;;;;13.20;9.30;;;16.70;1.00;;;;;;5014763;28;20180;-65
2022/08/21 04:34:09;;;;;;;15.67;8.67;;;16.60;1.00;;;;;;5014753;28;20175;-65
2022/08/21 04:36:35;;;;;;;17.80;9.13;;;16.60;1.00;;;;;;5014468;28;20407;-65
2022/08/21 04:39:01;;;;;;;20.43;9.67;;;16.50;1.00;;;;;;5012952;28;20247;-65
2022/08/21 04:41:27;;;;;;;70.60;15.00;;;16.50;1.00;;;;;;5014248;28;20736;-64
2022/08/21 04:43:54;;;;;;;22.80;9.97;;;16.50;1.00;;;;;;5014292;28;20407;-65
2022/08/21 04:46:21;;;;;;;17.43;10.50;;;16.60;1.00;;;;;;5014646;28;20788;-65
2022/08/21 04:48:47;;;;;;;18.60;9.73;;;16.50;1.00;;;;;;5014003;28;20403;-65
2022/08/21 04:51:22;;;;;;;16.83;9.53;;;16.50;1.00;;;;;;5014713;28;20823;-66
2022/08/21 04:54:00;;;;;;;18.53;10.33;;;16.50;1.00;;;;;;5014359;28;20414;-65
2022/08/21 04:57:03;;;;;;;26.43;9.90;;;16.40;1.00;;;;;;5014698;28;20431;-66
2022/08/21 04:59:44;;;;;;;17.30;10.40;;;16.40;1.00;;;;;;4993686;28;20787;-67
2022/08/21 05:02:10;;;;;;;23.83;11.90;;;16.40;1.00;;;;;;5014187;28;20415;-65
2022/08/21 05:04:47;;;;;;;25.70;11.03;;;16.40;1.00;;;;;;5013928;28;20427;-66
2022/08/21 05:07:17;;;;;;;33.07;11.30;;;16.40;1.00;;;;;;5013929;28;20473;-66
2022/08/21 05:09:43;;;;;;;31.27;10.93;;;16.40;1.00;;;;;;5013942;28;20498;-66
2022/08/21 05:12:10;;;;;;;22.17;10.53;;;16.40;1.00;;;;;;5014060;28;20819;-66
2022/08/21 05:14:36;;;;;;;26.83;10.10;;;16.40;1.00;;;;;;5013981;28;20423;-66
2022/08/21 05:17:01;;;;;;;19.57;10.20;;;16.50;1.00;;;;;;5013595;28;20931;-66
2022/08/21 05:19:27;;;;;;;15.17;9.20;;;16.50;1.00;;;;;;5013609;28;20168;-65
2022/08/21 05:21:53;;;;;;;38.50;11.33;;;16.70;1.00;;;;;;5013772;28;20180;-66
2022/08/21 05:24:19;;;;;;;20.97;9.20;;;16.70;99.90;;;;;;5012407;28;20168;-66
2022/08/21 05:26:45;;;;;;;10.47;8.63;;;16.60;99.90;;;;;;5013812;28;20407;-66
2022/08/21 05:29:12;;;;;;;26.47;10.67;;;16.60;99.90;;;;;;5013219;28;20415;-66
2022/08/21 05:31:38;;;;;;;25.83;10.60;;;16.70;99.90;;;;;;5013881;28;20411;-65
2022/08/21 05:34:05;;;;;;;30.77;11.13;;;16.90;99.90;;;;;;5013337;28;20407;-65
2022/08/21 05:36:31;;;;;;;31.40;9.57;;;16.80;99.90;;;;;;5013475;28;20494;-65
2022/08/21 05:38:57;;;;;;;29.50;9.00;;;16.80;99.90;;;;;;5013112;28;20498;-67
2022/08/21 05:41:22;;;;;;;24.50;9.63;;;16.80;99.90;;;;;;5013281;28;20204;-65
2022/08/21 05:43:48;;;;;;;27.57;8.20;;;16.80;50.10;;;;;;4995826;28;20244;-66
2022/08/21 05:46:14;;;;;;;21.27;8.57;;;16.90;1.00;;;;;;5013172;28;20727;-65
2022/08/21 05:48:40;;;;;;;17.67;8.37;;;16.90;1.00;;;;;;5012914;28;20598;-67
2022/08/21 05:51:14;;;;;;;31.63;8.90;;;17.60;99.90;;;;;;5013263;28;20178;-65
2022/08/21 05:53:44;;;;;;;12.30;6.60;;;18.20;99.90;;;;;;5013320;28;20173;-65
2022/08/21 05:56:11;;;;;;;11.30;6.70;;;18.80;1.00;;;;;;5013016;28;20553;-66
2022/08/21 05:58:37;;;;;;;14.40;6.17;;;19.10;1.00;;;;;;5012847;28;20506;-66
2022/08/21 06:01:04;;;;;;;32.10;8.47;;;19.40;1.00;;;;;;5012782;28;20541;-66
2022/08/21 06:03:34;;;;;;;26.53;8.07;;;19.60;99.90;;;;;;4995339;28;20247;-65
2022/08/21 06:06:00;;;;;;;14.77;6.80;;;19.80;99.90;;;;;;5012835;28;20427;-67
2022/08/21 06:08:27;;;;;;;10.57;6.60;;;20.00;78.30;;;;;;5012860;28;20813;-65
2022/08/21 06:10:54;;;;;;;13.70;6.87;;;20.40;1.00;;;;;;5012932;28;20411;-66
2022/08/21 06:13:21;;;;;;;13.60;8.27;;;20.60;1.00;;;;;;5012534;28;20410;-65
2022/08/21 06:15:48;;;;;;;27.50;9.73;;;20.70;1.00;;;;;;5012667;28;20553;-67
2022/08/21 06:18:14;;;;;;;30.60;9.97;;;20.80;1.00;;;;;;5012351;28;20419;-67
2022/08/21 06:20:40;;;;;;;48.13;11.73;;;21.00;1.00;;;;;;5012552;28;20451;-67
2022/08/21 06:23:06;;;;;;;56.80;11.70;;;21.40;1.00;;;;;;5012550;28;20718;-67
2022/08/21 06:25:32;;;;;;;37.30;10.30;;;21.70;1.00;;;;;;5012457;28;20203;-67
2022/08/21 06:28:06;;;;;;;35.83;10.70;;;21.90;1.00;;;;;;5012253;28;20195;-67
2022/08/21 06:30:32;;;;;;;19.20;9.20;;;22.10;1.00;;;;;;5012475;28;20172;-67
2022/08/21 06:32:58;;;;;;;16.93;8.90;;;22.10;1.00;;;;;;5012348;28;20503;-67
2022/08/21 06:35:24;;;;;;;34.47;10.13;;;22.20;1.00;;;;;;5012059;28;20987;-67
2022/08/21 06:37:50;;;;;;;41.47;13.57;;;22.10;1.00;;;;;;5012122;28;20658;-66
2022/08/21 06:40:16;;;;;;;32.87;12.33;;;22.10;1.00;;;;;;5012072;28;20574;-66
2022/08/21 06:42:42;;;;;;;27.40;9.87;;;22.10;1.00;;;;;;5012577;28;20411;-65
2022/08/21 06:45:08;;;;;;;10.57;9.27;;;22.20;1.00;;;;;;5012360;28;20267;-65
2022/08/21 06:47:34;;;;;;;17.50;10.13;;;22.40;1.00;;;;;;5011870;28;20703;-66
2022/08/21 06:50:00;;;;;;;62.87;13.43;;;22.50;1.00;;;;;;5012269;28;20411;-66
2022/08/21 06:52:25;;;;;;;50.03;12.27;;;22.50;1.00;;;;;;5012043;28;20255;-66
2022/08/21 06:54:51;;;;;;;42.00;11.37;;;22.80;1.00;;;;;;5011954;28;20239;-66
2022/08/21 06:57:17;;;;;;;36.90;12.17;;;22.90;99.90;;;;;;5011817;28;20176;-64
2022/08/21 06:59:42;;;;;;;45.47;12.20;;;23.00;99.90;;;;;;5011801;28;20191;-65
2022/08/21 07:02:08;;;;;;;38.30;10.63;;;23.00;99.90;;;;;;5012049;28;20665;-66
2022/08/21 07:04:34;;;;;;;29.60;10.47;;;23.00;99.90;;;;;;5011651;28;20187;-65
2022/08/21 07:07:00;;;;;;;20.60;9.90;;;23.10;99.90;;;;;;5011763;28;20633;-64
2022/08/21 07:09:25;;;;;;;32.30;11.10;;;23.20;99.90;;;;;;5011545;28;20645;-66
2022/08/21 07:11:55;;;;;;;19.90;8.63;;;23.30;99.90;;;;;;5011671;28;20180;-63
2022/08/21 07:14:21;;;;;;;17.77;8.93;;;23.50;99.90;;;;;;5011666;28;20207;-65
2022/08/21 07:16:48;;;;;;;29.37;9.50;;;23.50;99.90;;;;;;5011529;28;20407;-65
2022/08/21 07:19:14;;;;;;;17.13;8.23;;;23.60;99.90;;;;;;5013018;28;20199;-66
2022/08/21 07:21:39;;;;;;;31.53;9.10;;;23.60;99.90;;;;;;5011568;28;20907;-65
2022/08/21 07:24:05;;;;;;;26.73;8.37;;;23.70;99.90;;;;;;5011500;28;20175;-65
2022/08/21 07:26:31;;;;;;;12.00;7.70;;;23.80;99.90;;;;;;5011575;28;20636;-64
2022/08/21 07:28:56;;;;;;;23.90;8.67;;;24.00;99.90;;;;;;5011159;28;20540;-65
2022/08/21 07:31:24;;;;;;;7.90;6.80;;;24.20;99.90;;;;;;5011741;28;20180;-65
2022/08/21 07:33:50;;;;;;;18.70;7.17;;;23.80;99.90;;;;;;5011264;28;20179;-65
2022/08/21 07:36:17;;;;;;;9.23;6.67;;;23.90;99.90;;;;;;5011502;28;20435;-65
2022/08/21 07:38:43;;;;;;;18.93;7.63;;;23.80;99.90;;;;;;5010907;28;20502;-66
2022/08/21 07:41:18;;;;;;;22.83;8.50;;;24.10;99.90;;;;;;5011339;28;20843;-65
2022/08/21 07:43:44;;;;;;;22.23;8.17;;;24.30;99.90;;;;;;5011446;28;20502;-62
2022/08/21 07:46:10;;;;;;;33.87;7.77;;;24.50;99.90;;;;;;5011231;28;20427;-61
2022/08/21 07:48:36;;;;;;;27.00;8.27;;;24.50;99.90;;;;;;5010794;28;20781;-65
2022/08/21 07:51:09;;;;;;;21.87;8.00;;;24.80;99.90;;;;;;5010742;28;20293;-63
2022/08/21 07:53:36;;;;;;;23.67;7.33;;;24.90;99.90;;;;;;5010675;28;20184;-65
2022/08/21 07:56:04;;;;;;;10.80;6.60;;;25.00;99.90;;;;;;5010854;28;20459;-64
2022/08/21 07:58:30;;;;;;;9.63;5.80;;;25.10;99.90;;;;;;5010842;28;20441;-63
2022/08/21 08:00:56;;;;;;;8.93;6.00;;;25.20;99.90;;;;;;5011001;28;20986;-62
2022/08/21 08:03:22;;;;;;;13.77;6.33;;;25.30;99.90;;;;;;5011201;28;20510;-65
2022/08/21 08:05:47;;;;;;;14.67;6.20;;;25.60;99.90;;;;;;5010691;28;20650;-65
2022/08/21 08:08:13;;;;;;;10.17;6.30;;;25.60;99.90;;;;;;4992956;28;20177;-65
2022/08/21 08:10:39;;;;;;;39.90;8.90;;;25.50;99.90;;;;;;5010997;28;20200;-65
2022/08/21 08:13:05;;;;;;;20.50;6.30;;;25.30;99.90;;;;;;5011149;28;20172;-64
2022/08/21 08:15:31;;;;;;;27.67;7.17;;;25.30;99.90;;;;;;5010730;28;20690;-64
2022/08/21 08:17:57;;;;;;;14.60;5.73;;;25.70;99.90;;;;;;5010656;28;20447;-67
2022/08/21 08:20:26;;;;;;;14.17;5.83;;;25.60;99.90;;;;;;5010460;28;20625;-67
2022/08/21 08:22:52;;;;;;;14.77;5.90;;;25.40;99.90;;;;;;5011115;28;20787;-67
2022/08/21 08:25:20;;;;;;;26.80;6.20;;;25.80;99.90;;;;;;5010581;28;21010;-67
2022/08/21 08:27:46;;;;;;;23.40;6.23;;;26.00;99.90;;;;;;5010505;28;20411;-66
2022/08/21 08:30:14;;;;;;;27.97;7.07;;;26.20;99.90;;;;;;5010589;28;21020;-67
2022/08/21 08:32:40;;;;;;;16.33;6.87;;;26.30;99.90;;;;;;5010681;28;20414;-67
2022/08/21 08:35:07;;;;;;;12.30;5.90;;;26.50;99.90;;;;;;5010368;28;20431;-67
2022/08/21 08:37:33;;;;;;;12.93;5.87;;;26.40;99.90;;;;;;5010378;28;20427;-66
2022/08/21 08:39:59;;;;;;;18.47;6.80;;;26.40;99.90;;;;;;5010804;28;20456;-66
2022/08/21 08:42:29;;;;;;;14.87;5.90;;;26.50;99.90;;;;;;5010766;28;20407;-66
2022/08/21 08:45:03;;;;;;;16.17;5.57;;;26.20;99.90;;;;;;5009266;28;20684;-66
2022/08/21 08:47:31;;;;;;;12.70;5.87;;;25.80;99.90;;;;;;5010361;28;20408;-65
2022/08/21 08:50:16;;;;;;;58.17;10.40;;;26.20;99.90;;;;;;5010474;28;20494;-65
2022/08/21 08:53:10;;;;;;;49.90;8.73;;;26.60;99.90;;;;;;5010455;28;20422;-66
2022/08/21 08:55:39;;;;;;;15.20;6.13;;;26.90;99.90;;;;;;5010326;28;20785;-67
2022/08/21 08:58:13;;;;;;;5.67;5.07;;;26.90;99.90;;;;;;5010254;28;20451;-67
2022/08/21 09:00:39;;;;;;;21.93;6.30;;;26.60;99.90;;;;;;5013852;28;20457;-67
2022/08/21 09:03:05;;;;;;;20.13;6.20;;;26.50;99.90;;;;;;5013885;28;20771;-65
2022/08/21 09:05:46;;;;;;;12.40;5.57;;;26.80;99.90;;;;;;5013875;28;20208;-67
2022/08/21 09:09:00;;;;;;;90.17;16.37;;;26.80;99.90;;;;;;5013658;28;20164;-67
2022/08/21 09:11:58;;;;;;;13.77;5.73;;;27.10;99.90;;;;;;4934019;29;20448;-63
2022/08/21 09:14:27;;;;;;;6.07;5.03;;;27.10;99.90;;;;;;5013736;28;20426;-64
2022/08/21 09:16:59;;;;;;;15.60;5.50;;;26.60;99.90;;;;;;5013392;28;20928;-65
2022/08/21 09:19:25;;;;;;;7.73;4.67;;;26.40;99.90;;;;;;5013418;28;20403;-64
2022/08/21 09:21:57;;;;;;;9.50;5.23;;;26.50;99.90;;;;;;5013612;28;20451;-64
2022/08/21 09:24:44;;;;;;;10.50;5.00;;;25.90;99.90;;;;;;5013338;28;20192;-66
2022/08/21 09:27:12;;;;;;;34.67;7.20;;;25.70;99.90;;;;;;5013160;28;20403;-66
2022/08/21 09:29:42;;;;;;;41.07;6.93;;;25.40;99.90;;;;;;5013343;28;20490;-64
2022/08/21 09:32:32;;;;;;;7.20;4.63;;;25.80;99.90;;;;;;5013695;28;20411;-63
2022/08/21 09:35:07;;;;;;;5.60;4.40;;;26.10;99.90;;;;;;5003610;28;20438;-63
2022/08/21 09:37:44;;;;;;;9.03;5.00;;;26.10;99.90;;;;;;5013223;28;20569;-63
2022/08/21 09:40:30;;;;;;;27.73;5.80;;;26.10;99.90;;;;;;5013591;28;20465;-63
2022/08/21 09:43:17;;;;;;;7.33;3.97;;;26.20;99.90;;;;;;5014277;28;20892;-61
2022/08/21 09:45:44;;;;;;;5.87;4.43;;;26.40;99.90;;;;;;5013309;28;20463;-62
2022/08/21 09:48:24;;;;;;;12.80;4.57;;;26.20;99.90;;;;;;5013192;28;20446;-64
2022/08/21 09:50:51;;;;;;;7.93;4.57;;;26.30;99.90;;;;;;5013417;28;20418;-64
2022/08/21 09:53:28;;;;;;;6.13;4.00;;;26.30;99.90;;;;;;5012998;28;20411;-66
2022/08/21 09:58:47;;;;;;;13.17;4.97;;;26.90;99.90;;;;;;5013322;28;20411;-65
2022/08/21 10:01:15;;;;;;;17.00;5.63;;;27.30;99.90;;;;;;5011369;28;20549;-64
2022/08/21 10:03:41;;;;;;;28.43;7.10;;;27.50;99.90;;;;;;5013286;28;20443;-65
2022/08/21 10:06:10;;;;;;;9.53;3.97;;;27.10;99.90;;;;;;5012879;28;20800;-65
2022/08/21 10:08:38;;;;;;;6.53;4.70;;;26.70;99.90;;;;;;5012814;28;20263;-66
2022/08/21 10:11:14;;;;;;;6.60;4.67;;;26.30;99.90;;;;;;5012374;28;20450;-65
2022/08/21 10:13:49;;;;;;;7.43;5.20;;;25.80;99.90;;;;;;5013031;28;20419;-66
2022/08/21 10:17:06;;;;;;;6.67;4.00;;;25.30;99.90;;;;;;5012684;28;20418;-65
2022/08/21 10:19:42;;;;;;;6.57;4.87;;;24.70;99.90;;;;;;4932776;29;20430;-66
2022/08/21 10:22:26;;;;;;;12.20;4.90;;;24.80;99.90;;;;;;5011008;28;20477;-65
2022/08/21 10:25:02;;;;;;;11.53;4.03;;;25.00;99.90;;;;;;5012692;28;20469;-66
2022/08/21 10:27:47;;;;;;;9.03;4.80;;;24.90;99.90;;;;;;5012326;28;20895;-65
2022/08/21 10:30:35;;;;;;;8.07;5.13;;;24.80;99.90;;;;;;5012608;28;20824;-65
2022/08/21 10:33:35;;;;;;;8.17;5.20;;;24.50;99.90;;;;;;4998308;28;20425;-62
2022/08/21 10:36:03;;;;;;;9.27;5.03;;;24.30;99.90;;;;;;5012355;28;20476;-61
2022/08/21 10:39:17;;;;;;;25.07;5.97;;;24.20;99.90;;;;;;5012180;28;20395;-65
2022/08/21 10:42:09;;;;;;;15.37;5.00;;;24.40;99.90;;;;;;4977139;28;20470;-65
2022/08/21 10:44:37;;;;;;;12.80;4.20;;;25.00;99.90;;;;;;5012071;28;20423;-65
2022/08/21 10:47:12;;;;;;;5.30;3.80;;;25.30;99.90;;;;;;5011859;28;20415;-63
2022/08/21 10:49:44;;;;;;;8.40;4.20;;;25.50;99.90;;;;;;5012030;28;20418;-65
2022/08/21 10:52:15;;;;;;;10.77;5.07;;;25.30;99.90;;;;;;5012096;28;20407;-66
2022/08/21 10:54:49;;;;;;;6.60;4.33;;;25.20;99.90;;;;;;5033885;22;20541;-64
2022/08/21 10:57:29;;;;;;;13.10;4.47;;;25.00;99.90;;;;;;5012480;28;20470;-65
2022/08/21 11:00:18;;;;;;;18.47;4.93;;;25.00;99.90;;;;;;5012198;28;20387;-64
2022/08/21 11:02:57;;;;;;;16.00;4.83;;;24.80;99.90;;;;;;5012437;28;20400;-65
2022/08/21 11:05:41;;;;;;;21.87;4.83;;;24.80;99.90;;;;;;5012524;28;20510;-65
2022/08/21 11:08:26;;;;;;;12.03;4.60;;;24.70;99.90;;;;;;5012346;28;20534;-66
2022/08/21 11:11:03;;;;;;;24.57;6.37;;;24.80;99.90;;;;;;5012432;28;20403;-65
2022/08/21 11:13:48;;;;;;;12.33;4.53;;;25.10;99.90;;;;;;5012171;28;20459;-65
2022/08/21 11:16:38;;;;;;;7.47;3.43;;;25.00;99.90;;;;;;5011881;28;20429;-65
2022/08/21 11:19:09;;;;;;;16.03;5.10;;;25.00;99.90;;;;;;5011639;28;20907;-65
2022/08/21 11:21:41;;;;;;;7.83;4.67;;;25.20;99.90;;;;;;5011347;28;20447;-67
2022/08/21 11:24:23;;;;;;;4.47;4.07;;;25.10;99.90;;;;;;5011953;28;20407;-64
2022/08/21 11:27:01;;;;;;;21.43;4.93;;;25.20;99.90;;;;;;5012580;28;20462;-64
2022/08/21 11:29:39;;;;;;;16.50;4.90;;;25.10;99.90;;;;;;5011911;28;20403;-64
2022/08/21 11:32:29;;;;;;;17.83;5.57;;;25.20;99.90;;;;;;5011881;28;20414;-64
2022/08/21 11:35:29;;;;;;;10.70;3.90;;;25.50;99.90;;;;;;5011820;28;20497;-64
2022/08/21 11:38:08;;;;;;;10.77;4.87;;;25.70;99.90;;;;;;5007982;28;20443;-65
2022/08/21 11:40:42;;;;;;;12.13;4.57;;;26.00;99.90;;;;;;5011426;28;20450;-65
2022/08/21 11:43:26;;;;;;;6.80;3.77;;;25.90;99.90;;;;;;5011838;28;20426;-65
2022/08/21 11:46:03;;;;;;;12.77;5.20;;;25.90;99.90;;;;;;5011724;28;20422;-66
2022/08/21 11:48:47;;;;;;;12.13;4.50;;;26.10;99.90;;;;;;5011505;28;20394;-66
2022/08/21 11:51:24;;;;;;;19.83;4.70;;;26.20;99.90;;;;;;5011657;28;20808;-65
2022/08/21 11:54:05;;;;;;;23.50;5.47;;;26.20;99.90;;;;;;5011489;28;20403;-66
2022/08/21 11:56:38;;;;;;;40.33;6.10;;;25.70;99.90;;;;;;5011438;28;20526;-66
2022/08/21 11:59:13;;;;;;;27.90;6.30;;;25.60;99.90;;;;;;4993293;28;20965;-65
2022/08/21 12:01:44;;;;;;;9.90;4.43;;;25.50;99.90;;;;;;5011437;28;20453;-65
2022/08/21 12:04:21;;;;;;;15.03;4.53;;;25.50;99.90;;;;;;5011320;28;20492;-65
2022/08/21 12:06:49;;;;;;;26.00;6.43;;;25.70;99.90;;;;;;5011366;28;20461;-65
2022/08/21 12:09:23;;;;;;;6.20;3.70;;;25.70;99.90;;;;;;5011060;28;20458;-66
2022/08/21 12:12:04;;;;;;;6.93;3.80;;;25.10;99.90;;;;;;5010997;28;20465;-65
2022/08/21 12:14:46;;;;;;;8.70;4.30;;;24.80;99.90;;;;;;5011301;28;20792;-65
2022/08/21 12:17:24;;;;;;;8.17;4.23;;;24.90;99.90;;;;;;5011244;28;20403;-65
2022/08/21 12:20:02;;;;;;;4.80;3.67;;;24.90;99.90;;;;;;5011490;28;20411;-66
2022/08/21 12:22:39;;;;;;;9.67;4.23;;;25.00;99.90;;;;;;5011713;28;20403;-65
2022/08/21 12:25:11;;;;;;;14.50;4.80;;;25.20;99.90;;;;;;5011450;28;20931;-66
2022/08/21 12:28:01;;;;;;;13.50;3.87;;;25.50;99.90;;;;;;5011160;28;20974;-66
2022/08/21 12:30:27;;;;;;;6.50;4.20;;;25.90;99.90;;;;;;5010974;28;20410;-66
2022/08/21 12:33:04;;;;;;;11.47;4.17;;;26.00;99.90;;;;;;5012045;28;20407;-66
2022/08/21 12:35:43;;;;;;;4.70;3.53;;;26.10;99.90;;;;;;5015428;28;20195;-66
2022/08/21 12:38:27;;;;;;;7.40;4.10;;;25.70;99.90;;;;;;5015027;28;20499;-66
2022/08/21 12:41:06;;;;;;;5.20;4.00;;;25.50;99.90;;;;;;5014125;28;20442;-66
2022/08/21 12:43:46;;;;;;;14.03;4.40;;;25.70;99.90;;;;;;5015080;28;20834;-66
2022/08/21 12:46:22;;;;;;;7.60;4.40;;;25.80;99.90;;;;;;5014917;28;20420;-65
2022/08/21 12:48:56;;;;;;;16.97;4.80;;;25.60;99.90;;;;;;5014599;28;20403;-66
2022/08/21 12:51:30;;;;;;;5.93;3.70;;;25.70;99.90;;;;;;5014797;28;20403;-66
2022/08/21 12:53:59;;;;;;;12.23;4.97;;;25.60;99.90;;;;;;5014936;28;20758;-65
2022/08/21 12:56:31;;;;;;;6.30;3.73;;;25.50;99.90;;;;;;5014425;28;20439;-66
2022/08/21 12:59:05;;;;;;;10.33;3.90;;;25.30;99.90;;;;;;5014273;28;20408;-66
2022/08/21 13:01:34;;;;;;;6.90;4.03;;;25.50;99.90;;;;;;5014541;28;20457;-66